sensor_id;sensor_type;location;lat;lon;timestamp;P1;durP1;ratioP1;P2;durP2;ratioP2
27706;SDS011;36332;51.384;0.040;2023-11-19T00:00:11;54.55;;;7.88;;
27706;SDS011;36332;51.384;0.040;2023-11-19T00:02:40;57.38;;;8.48;;
27706;SDS011;36332;51.384;0.040;2023-11-19T00:05:10;52.40;;;10.25;;
27706;SDS011;36332;51.384;0.040;2023-11-19T00:07:41;56.95;;;8.15;;
27706;SDS011;36332;51.384;0.040;2023-11-19T00:10:15;63.33;;;8.88;;
27706;SDS011;36332;51.384;0.040;2023-11-19T00:12:48;52.58;;;9.27;;
27706;SDS011;36332;51.384;0.040;2023-11-19T00:15:17;57.97;;;9.70;;
27706;SDS011;36332;51.384;0.040;2023-11-19T00:17:46;60.92;;;9.27;;
27706;SDS011;36332;51.384;0.040;2023-11-19T00:20:19;57.95;;;9.82;;
27706;SDS011;36332;51.384;0.040;2023-11-19T00:22:49;54.28;;;9.77;;
27706;SDS011;36332;51.384;0.040;2023-11-19T00:25:20;60.30;;;8.00;;
27706;SDS011;36332;51.384;0.040;2023-11-19T00:27:52;72.32;;;9.70;;
27706;SDS011;36332;51.384;0.040;2023-11-19T00:30:21;51.22;;;8.60;;
27706;SDS011;36332;51.384;0.040;2023-11-19T00:32:48;50.65;;;8.68;;
27706;SDS011;36332;51.384;0.040;2023-11-19T00:35:16;69.45;;;9.32;;
27706;SDS011;36332;51.384;0.040;2023-11-19T00:37:44;52.25;;;9.57;;
27706;SDS011;36332;51.384;0.040;2023-11-19T00:40:15;58.58;;;8.90;;
27706;SDS011;36332;51.384;0.040;2023-11-19T00:42:45;60.75;;;9.40;;
27706;SDS011;36332;51.384;0.040;2023-11-19T00:45:13;56.83;;;8.35;;
27706;SDS011;36332;51.384;0.040;2023-11-19T00:47:41;54.42;;;8.63;;
27706;SDS011;36332;51.384;0.040;2023-11-19T00:50:09;61.10;;;9.07;;
27706;SDS011;36332;51.384;0.040;2023-11-19T00:52:37;59.53;;;9.57;;
27706;SDS011;36332;51.384;0.040;2023-11-19T00:55:05;70.03;;;11.00;;
27706;SDS011;36332;51.384;0.040;2023-11-19T00:57:34;66.80;;;9.63;;
27706;SDS011;36332;51.384;0.040;2023-11-19T01:00:03;84.40;;;10.57;;
27706;SDS011;36332;51.384;0.040;2023-11-19T01:02:42;66.43;;;10.38;;
27706;SDS011;36332;51.384;0.040;2023-11-19T01:05:10;78.93;;;10.70;;
27706;SDS011;36332;51.384;0.040;2023-11-19T01:07:41;63.40;;;11.48;;
27706;SDS011;36332;51.384;0.040;2023-11-19T01:10:10;54.72;;;9.90;;
27706;SDS011;36332;51.384;0.040;2023-11-19T01:12:38;62.22;;;9.27;;
27706;SDS011;36332;51.384;0.040;2023-11-19T01:15:06;73.90;;;9.55;;
27706;SDS011;36332;51.384;0.040;2023-11-19T01:17:34;55.83;;;10.68;;
27706;SDS011;36332;51.384;0.040;2023-11-19T01:20:02;73.03;;;9.98;;
27706;SDS011;36332;51.384;0.040;2023-11-19T01:22:33;70.20;;;10.05;;
27706;SDS011;36332;51.384;0.040;2023-11-19T01:25:00;60.78;;;10.20;;
27706;SDS011;36332;51.384;0.040;2023-11-19T01:27:28;56.55;;;8.85;;
27706;SDS011;36332;51.384;0.040;2023-11-19T01:29:55;57.28;;;9.57;;
27706;SDS011;36332;51.384;0.040;2023-11-19T01:32:23;57.60;;;8.88;;
27706;SDS011;36332;51.384;0.040;2023-11-19T01:34:51;57.22;;;9.70;;
27706;SDS011;36332;51.384;0.040;2023-11-19T01:37:18;76.45;;;10.57;;
27706;SDS011;36332;51.384;0.040;2023-11-19T01:39:46;79.40;;;10.10;;
27706;SDS011;36332;51.384;0.040;2023-11-19T01:42:25;72.45;;;9.90;;
27706;SDS011;36332;51.384;0.040;2023-11-19T01:44:59;65.53;;;11.32;;
27706;SDS011;36332;51.384;0.040;2023-11-19T01:47:28;70.88;;;10.73;;
27706;SDS011;36332;51.384;0.040;2023-11-19T01:49:57;65.13;;;11.20;;
27706;SDS011;36332;51.384;0.040;2023-11-19T01:52:26;65.57;;;9.20;;
27706;SDS011;36332;51.384;0.040;2023-11-19T01:54:55;61.03;;;10.68;;
27706;SDS011;36332;51.384;0.040;2023-11-19T01:57:23;56.10;;;10.10;;
27706;SDS011;36332;51.384;0.040;2023-11-19T01:59:51;53.63;;;11.38;;
27706;SDS011;36332;51.384;0.040;2023-11-19T02:02:19;40.90;;;6.85;;
27706;SDS011;36332;51.384;0.040;2023-11-19T02:04:49;56.05;;;9.45;;
27706;SDS011;36332;51.384;0.040;2023-11-19T02:07:18;76.97;;;11.82;;
27706;SDS011;36332;51.384;0.040;2023-11-19T02:09:46;55.33;;;8.52;;
27706;SDS011;36332;51.384;0.040;2023-11-19T02:12:13;54.03;;;9.43;;
27706;SDS011;36332;51.384;0.040;2023-11-19T02:14:42;72.20;;;9.85;;
27706;SDS011;36332;51.384;0.040;2023-11-19T02:17:24;51.97;;;8.10;;
27706;SDS011;36332;51.384;0.040;2023-11-19T02:19:53;61.40;;;9.40;;
27706;SDS011;36332;51.384;0.040;2023-11-19T02:22:21;64.75;;;8.73;;
27706;SDS011;36332;51.384;0.040;2023-11-19T02:24:49;61.38;;;9.30;;
27706;SDS011;36332;51.384;0.040;2023-11-19T02:30:11;57.45;;;9.20;;
27706;SDS011;36332;51.384;0.040;2023-11-19T02:32:42;53.67;;;9.88;;
27706;SDS011;36332;51.384;0.040;2023-11-19T02:35:10;55.90;;;7.85;;
27706;SDS011;36332;51.384;0.040;2023-11-19T02:37:38;56.67;;;10.18;;
27706;SDS011;36332;51.384;0.040;2023-11-19T02:40:06;58.45;;;9.43;;
27706;SDS011;36332;51.384;0.040;2023-11-19T02:42:36;53.28;;;7.88;;
27706;SDS011;36332;51.384;0.040;2023-11-19T02:45:04;53.38;;;9.65;;
27706;SDS011;36332;51.384;0.040;2023-11-19T02:47:34;58.42;;;7.50;;
27706;SDS011;36332;51.384;0.040;2023-11-19T02:50:03;58.33;;;9.30;;
27706;SDS011;36332;51.384;0.040;2023-11-19T02:52:34;78.45;;;9.65;;
27706;SDS011;36332;51.384;0.040;2023-11-19T02:55:04;50.70;;;7.68;;
27706;SDS011;36332;51.384;0.040;2023-11-19T02:57:37;56.55;;;9.43;;
27706;SDS011;36332;51.384;0.040;2023-11-19T03:00:06;55.10;;;8.05;;
27706;SDS011;36332;51.384;0.040;2023-11-19T03:02:40;53.58;;;7.13;;
27706;SDS011;36332;51.384;0.040;2023-11-19T03:05:15;38.30;;;6.82;;
27706;SDS011;36332;51.384;0.040;2023-11-19T03:07:43;66.35;;;9.00;;
27706;SDS011;36332;51.384;0.040;2023-11-19T03:10:12;63.05;;;8.75;;
27706;SDS011;36332;51.384;0.040;2023-11-19T03:12:43;46.90;;;7.15;;
27706;SDS011;36332;51.384;0.040;2023-11-19T03:15:12;54.03;;;7.40;;
27706;SDS011;36332;51.384;0.040;2023-11-19T03:17:40;53.10;;;7.85;;
27706;SDS011;36332;51.384;0.040;2023-11-19T03:20:09;64.90;;;7.75;;
27706;SDS011;36332;51.384;0.040;2023-11-19T03:22:44;56.03;;;7.78;;
27706;SDS011;36332;51.384;0.040;2023-11-19T03:25:12;48.47;;;8.80;;
27706;SDS011;36332;51.384;0.040;2023-11-19T03:27:40;42.53;;;8.35;;
27706;SDS011;36332;51.384;0.040;2023-11-19T03:30:10;43.28;;;6.85;;
27706;SDS011;36332;51.384;0.040;2023-11-19T03:32:38;48.60;;;9.00;;
27706;SDS011;36332;51.384;0.040;2023-11-19T03:35:06;62.17;;;8.95;;
27706;SDS011;36332;51.384;0.040;2023-11-19T03:37:38;57.35;;;8.38;;
27706;SDS011;36332;51.384;0.040;2023-11-19T03:40:06;48.60;;;6.13;;
27706;SDS011;36332;51.384;0.040;2023-11-19T03:42:35;59.83;;;7.90;;
27706;SDS011;36332;51.384;0.040;2023-11-19T03:45:03;60.05;;;9.35;;
27706;SDS011;36332;51.384;0.040;2023-11-19T03:47:31;59.53;;;8.30;;
27706;SDS011;36332;51.384;0.040;2023-11-19T03:49:59;73.22;;;8.25;;
27706;SDS011;36332;51.384;0.040;2023-11-19T03:52:26;54.53;;;7.45;;
27706;SDS011;36332;51.384;0.040;2023-11-19T03:54:55;53.13;;;8.57;;
27706;SDS011;36332;51.384;0.040;2023-11-19T03:57:24;64.75;;;12.52;;
27706;SDS011;36332;51.384;0.040;2023-11-19T03:59:52;47.67;;;7.90;;
27706;SDS011;36332;51.384;0.040;2023-11-19T04:02:19;49.60;;;6.72;;
27706;SDS011;36332;51.384;0.040;2023-11-19T04:04:47;54.90;;;8.80;;
27706;SDS011;36332;51.384;0.040;2023-11-19T04:07:16;62.55;;;8.25;;
27706;SDS011;36332;51.384;0.040;2023-11-19T04:09:43;64.53;;;8.45;;
27706;SDS011;36332;51.384;0.040;2023-11-19T04:12:11;62.20;;;8.75;;
27706;SDS011;36332;51.384;0.040;2023-11-19T04:14:38;50.63;;;7.00;;
27706;SDS011;36332;51.384;0.040;2023-11-19T04:17:07;53.28;;;9.20;;
27706;SDS011;36332;51.384;0.040;2023-11-19T04:19:35;58.15;;;7.47;;
27706;SDS011;36332;51.384;0.040;2023-11-19T04:22:03;62.50;;;8.82;;
27706;SDS011;36332;51.384;0.040;2023-11-19T04:24:31;54.30;;;8.70;;
27706;SDS011;36332;51.384;0.040;2023-11-19T04:26:58;62.92;;;8.90;;
27706;SDS011;36332;51.384;0.040;2023-11-19T04:29:26;49.85;;;8.30;;
27706;SDS011;36332;51.384;0.040;2023-11-19T04:31:53;52.85;;;7.50;;
27706;SDS011;36332;51.384;0.040;2023-11-19T04:34:22;59.95;;;8.38;;
27706;SDS011;36332;51.384;0.040;2023-11-19T04:36:49;63.03;;;8.77;;
27706;SDS011;36332;51.384;0.040;2023-11-19T04:39:17;52.38;;;6.70;;
27706;SDS011;36332;51.384;0.040;2023-11-19T04:41:46;61.10;;;8.52;;
27706;SDS011;36332;51.384;0.040;2023-11-19T04:44:16;55.25;;;9.32;;
27706;SDS011;36332;51.384;0.040;2023-11-19T04:46:44;52.88;;;8.18;;
27706;SDS011;36332;51.384;0.040;2023-11-19T04:49:13;68.03;;;8.55;;
27706;SDS011;36332;51.384;0.040;2023-11-19T04:51:45;50.65;;;8.77;;
27706;SDS011;36332;51.384;0.040;2023-11-19T04:54:15;55.00;;;9.57;;
27706;SDS011;36332;51.384;0.040;2023-11-19T04:56:46;57.42;;;8.68;;
27706;SDS011;36332;51.384;0.040;2023-11-19T04:59:14;53.92;;;8.93;;
27706;SDS011;36332;51.384;0.040;2023-11-19T05:01:46;75.63;;;12.00;;
27706;SDS011;36332;51.384;0.040;2023-11-19T05:04:14;46.08;;;7.28;;
27706;SDS011;36332;51.384;0.040;2023-11-19T05:06:42;55.58;;;8.38;;
27706;SDS011;36332;51.384;0.040;2023-11-19T05:09:10;59.03;;;9.30;;
27706;SDS011;36332;51.384;0.040;2023-11-19T05:11:40;55.40;;;8.75;;
27706;SDS011;36332;51.384;0.040;2023-11-19T05:14:11;43.97;;;7.53;;
27706;SDS011;36332;51.384;0.040;2023-11-19T05:16:42;54.30;;;7.60;;
27706;SDS011;36332;51.384;0.040;2023-11-19T05:19:12;53.63;;;8.25;;
27706;SDS011;36332;51.384;0.040;2023-11-19T05:21:44;50.67;;;8.75;;
27706;SDS011;36332;51.384;0.040;2023-11-19T05:24:12;59.75;;;9.60;;
27706;SDS011;36332;51.384;0.040;2023-11-19T05:26:40;52.88;;;7.80;;
27706;SDS011;36332;51.384;0.040;2023-11-19T05:29:08;51.13;;;8.30;;
27706;SDS011;36332;51.384;0.040;2023-11-19T05:31:35;54.15;;;8.57;;
27706;SDS011;36332;51.384;0.040;2023-11-19T05:34:05;54.70;;;8.50;;
27706;SDS011;36332;51.384;0.040;2023-11-19T05:36:34;54.47;;;8.27;;
27706;SDS011;36332;51.384;0.040;2023-11-19T05:39:02;51.42;;;7.13;;
27706;SDS011;36332;51.384;0.040;2023-11-19T05:41:30;60.25;;;8.07;;
27706;SDS011;36332;51.384;0.040;2023-11-19T05:43:57;49.88;;;6.80;;
27706;SDS011;36332;51.384;0.040;2023-11-19T05:46:25;52.80;;;7.03;;
27706;SDS011;36332;51.384;0.040;2023-11-19T05:48:54;49.28;;;8.82;;
27706;SDS011;36332;51.384;0.040;2023-11-19T05:51:22;38.35;;;7.15;;
27706;SDS011;36332;51.384;0.040;2023-11-19T05:53:51;51.47;;;7.28;;
27706;SDS011;36332;51.384;0.040;2023-11-19T05:56:18;54.67;;;9.50;;
27706;SDS011;36332;51.384;0.040;2023-11-19T05:58:48;41.25;;;6.95;;
27706;SDS011;36332;51.384;0.040;2023-11-19T06:01:16;60.95;;;7.95;;
27706;SDS011;36332;51.384;0.040;2023-11-19T06:03:44;47.03;;;7.85;;
27706;SDS011;36332;51.384;0.040;2023-11-19T06:06:17;53.78;;;9.00;;
27706;SDS011;36332;51.384;0.040;2023-11-19T06:08:46;44.80;;;7.18;;
27706;SDS011;36332;51.384;0.040;2023-11-19T06:11:14;48.13;;;6.53;;
27706;SDS011;36332;51.384;0.040;2023-11-19T06:13:45;43.35;;;7.20;;
27706;SDS011;36332;51.384;0.040;2023-11-19T06:16:18;44.33;;;7.15;;
27706;SDS011;36332;51.384;0.040;2023-11-19T06:18:46;63.88;;;9.75;;
27706;SDS011;36332;51.384;0.040;2023-11-19T06:21:14;50.90;;;7.65;;
27706;SDS011;36332;51.384;0.040;2023-11-19T06:23:41;42.08;;;7.10;;
27706;SDS011;36332;51.384;0.040;2023-11-19T06:26:09;47.90;;;6.93;;
27706;SDS011;36332;51.384;0.040;2023-11-19T06:28:37;53.75;;;8.18;;
27706;SDS011;36332;51.384;0.040;2023-11-19T06:31:05;43.38;;;10.60;;
27706;SDS011;36332;51.384;0.040;2023-11-19T06:33:33;39.97;;;5.95;;
27706;SDS011;36332;51.384;0.040;2023-11-19T06:36:00;44.50;;;5.63;;
27706;SDS011;36332;51.384;0.040;2023-11-19T06:38:28;44.42;;;6.28;;
27706;SDS011;36332;51.384;0.040;2023-11-19T06:40:55;48.35;;;6.30;;
27706;SDS011;36332;51.384;0.040;2023-11-19T06:43:23;46.38;;;7.75;;
27706;SDS011;36332;51.384;0.040;2023-11-19T06:45:51;39.85;;;5.70;;
27706;SDS011;36332;51.384;0.040;2023-11-19T06:48:18;54.30;;;7.30;;
27706;SDS011;36332;51.384;0.040;2023-11-19T06:50:46;35.17;;;7.43;;
27706;SDS011;36332;51.384;0.040;2023-11-19T06:53:14;50.28;;;6.85;;
27706;SDS011;36332;51.384;0.040;2023-11-19T06:55:41;46.33;;;6.93;;
27706;SDS011;36332;51.384;0.040;2023-11-19T06:58:09;52.67;;;7.55;;
27706;SDS011;36332;51.384;0.040;2023-11-19T07:00:36;49.33;;;8.10;;
27706;SDS011;36332;51.384;0.040;2023-11-19T07:03:04;54.60;;;5.93;;
27706;SDS011;36332;51.384;0.040;2023-11-19T07:05:36;46.92;;;5.88;;
27706;SDS011;36332;51.384;0.040;2023-11-19T07:08:06;38.33;;;5.93;;
27706;SDS011;36332;51.384;0.040;2023-11-19T07:10:37;34.55;;;5.15;;
27706;SDS011;36332;51.384;0.040;2023-11-19T07:13:05;39.85;;;5.43;;
27706;SDS011;36332;51.384;0.040;2023-11-19T07:15:33;44.42;;;7.53;;
27706;SDS011;36332;51.384;0.040;2023-11-19T07:18:01;41.67;;;5.57;;
27706;SDS011;36332;51.384;0.040;2023-11-19T07:20:29;54.47;;;6.18;;
27706;SDS011;36332;51.384;0.040;2023-11-19T07:22:58;46.45;;;6.60;;
27706;SDS011;36332;51.384;0.040;2023-11-19T07:25:26;63.30;;;7.30;;
27706;SDS011;36332;51.384;0.040;2023-11-19T07:27:53;42.50;;;5.75;;
27706;SDS011;36332;51.384;0.040;2023-11-19T07:30:22;38.70;;;5.47;;
27706;SDS011;36332;51.384;0.040;2023-11-19T07:32:50;41.25;;;6.30;;
27706;SDS011;36332;51.384;0.040;2023-11-19T07:35:17;33.90;;;6.18;;
27706;SDS011;36332;51.384;0.040;2023-11-19T07:37:46;38.97;;;5.82;;
27706;SDS011;36332;51.384;0.040;2023-11-19T07:40:14;41.13;;;6.07;;
27706;SDS011;36332;51.384;0.040;2023-11-19T07:42:42;35.42;;;5.88;;
27706;SDS011;36332;51.384;0.040;2023-11-19T07:45:10;35.90;;;5.90;;
27706;SDS011;36332;51.384;0.040;2023-11-19T07:47:38;38.88;;;5.15;;
27706;SDS011;36332;51.384;0.040;2023-11-19T07:50:06;35.75;;;4.75;;
27706;SDS011;36332;51.384;0.040;2023-11-19T07:52:33;38.50;;;6.70;;
27706;SDS011;36332;51.384;0.040;2023-11-19T07:55:01;28.45;;;4.90;;
27706;SDS011;36332;51.384;0.040;2023-11-19T07:57:29;32.72;;;4.88;;
27706;SDS011;36332;51.384;0.040;2023-11-19T07:59:58;33.28;;;5.22;;
27706;SDS011;36332;51.384;0.040;2023-11-19T08:02:25;31.77;;;4.75;;
27706;SDS011;36332;51.384;0.040;2023-11-19T08:04:53;31.17;;;5.97;;
27706;SDS011;36332;51.384;0.040;2023-11-19T08:07:23;47.00;;;6.68;;
27706;SDS011;36332;51.384;0.040;2023-11-19T08:09:52;36.45;;;6.63;;
27706;SDS011;36332;51.384;0.040;2023-11-19T08:12:20;40.70;;;5.10;;
27706;SDS011;36332;51.384;0.040;2023-11-19T08:14:48;30.45;;;4.32;;
27706;SDS011;36332;51.384;0.040;2023-11-19T08:17:16;35.17;;;5.90;;
27706;SDS011;36332;51.384;0.040;2023-11-19T08:19:44;32.17;;;4.43;;
27706;SDS011;36332;51.384;0.040;2023-11-19T08:22:11;36.03;;;6.65;;
27706;SDS011;36332;51.384;0.040;2023-11-19T08:24:39;34.78;;;5.90;;
27706;SDS011;36332;51.384;0.040;2023-11-19T08:27:07;45.80;;;7.28;;
27706;SDS011;36332;51.384;0.040;2023-11-19T08:29:34;43.25;;;7.18;;
27706;SDS011;36332;51.384;0.040;2023-11-19T08:32:02;31.70;;;4.35;;
27706;SDS011;36332;51.384;0.040;2023-11-19T08:34:30;36.10;;;6.15;;
27706;SDS011;36332;51.384;0.040;2023-11-19T08:36:58;32.10;;;4.70;;
27706;SDS011;36332;51.384;0.040;2023-11-19T08:39:26;33.03;;;6.35;;
27706;SDS011;36332;51.384;0.040;2023-11-19T08:41:55;27.77;;;6.07;;
27706;SDS011;36332;51.384;0.040;2023-11-19T08:44:22;35.80;;;5.32;;
27706;SDS011;36332;51.384;0.040;2023-11-19T08:46:50;32.28;;;6.78;;
27706;SDS011;36332;51.384;0.040;2023-11-19T08:49:17;33.20;;;5.00;;
27706;SDS011;36332;51.384;0.040;2023-11-19T08:51:45;32.33;;;4.57;;
27706;SDS011;36332;51.384;0.040;2023-11-19T08:54:13;35.83;;;5.68;;
27706;SDS011;36332;51.384;0.040;2023-11-19T08:56:41;34.55;;;5.93;;
27706;SDS011;36332;51.384;0.040;2023-11-19T08:59:08;48.97;;;5.93;;
27706;SDS011;36332;51.384;0.040;2023-11-19T09:01:36;33.70;;;5.18;;
27706;SDS011;36332;51.384;0.040;2023-11-19T09:04:04;41.25;;;6.38;;
27706;SDS011;36332;51.384;0.040;2023-11-19T09:06:32;34.15;;;6.00;;
27706;SDS011;36332;51.384;0.040;2023-11-19T09:09:00;33.88;;;5.15;;
27706;SDS011;36332;51.384;0.040;2023-11-19T09:11:29;42.53;;;6.25;;
27706;SDS011;36332;51.384;0.040;2023-11-19T09:13:57;37.25;;;6.13;;
27706;SDS011;36332;51.384;0.040;2023-11-19T09:16:25;39.80;;;5.97;;
27706;SDS011;36332;51.384;0.040;2023-11-19T09:18:53;40.75;;;5.57;;
27706;SDS011;36332;51.384;0.040;2023-11-19T09:21:20;40.50;;;6.32;;
27706;SDS011;36332;51.384;0.040;2023-11-19T09:23:50;36.95;;;5.90;;
27706;SDS011;36332;51.384;0.040;2023-11-19T09:26:17;33.08;;;6.07;;
27706;SDS011;36332;51.384;0.040;2023-11-19T09:28:45;39.70;;;6.75;;
27706;SDS011;36332;51.384;0.040;2023-11-19T09:31:13;49.50;;;7.55;;
27706;SDS011;36332;51.384;0.040;2023-11-19T09:33:41;45.97;;;6.13;;
27706;SDS011;36332;51.384;0.040;2023-11-19T09:36:11;41.50;;;7.22;;
27706;SDS011;36332;51.384;0.040;2023-11-19T09:38:40;45.88;;;7.25;;
27706;SDS011;36332;51.384;0.040;2023-11-19T09:41:09;43.72;;;6.97;;
27706;SDS011;36332;51.384;0.040;2023-11-19T09:43:39;42.63;;;7.25;;
27706;SDS011;36332;51.384;0.040;2023-11-19T09:46:10;33.00;;;6.25;;
27706;SDS011;36332;51.384;0.040;2023-11-19T09:48:43;35.15;;;5.70;;
27706;SDS011;36332;51.384;0.040;2023-11-19T09:51:12;41.50;;;7.53;;
27706;SDS011;36332;51.384;0.040;2023-11-19T09:53:39;39.75;;;6.07;;
27706;SDS011;36332;51.384;0.040;2023-11-19T09:56:08;31.17;;;6.15;;
27706;SDS011;36332;51.384;0.040;2023-11-19T09:58:38;38.70;;;6.30;;
27706;SDS011;36332;51.384;0.040;2023-11-19T10:01:07;37.75;;;6.43;;
27706;SDS011;36332;51.384;0.040;2023-11-19T10:03:40;41.80;;;6.97;;
27706;SDS011;36332;51.384;0.040;2023-11-19T10:06:08;42.63;;;7.10;;
27706;SDS011;36332;51.384;0.040;2023-11-19T10:08:38;46.45;;;6.32;;
27706;SDS011;36332;51.384;0.040;2023-11-19T10:11:09;31.80;;;5.78;;
27706;SDS011;36332;51.384;0.040;2023-11-19T10:13:38;33.25;;;4.72;;
27706;SDS011;36332;51.384;0.040;2023-11-19T10:16:07;38.08;;;5.82;;
27706;SDS011;36332;51.384;0.040;2023-11-19T10:18:35;35.03;;;6.22;;
27706;SDS011;36332;51.384;0.040;2023-11-19T10:21:07;31.75;;;5.70;;
27706;SDS011;36332;51.384;0.040;2023-11-19T10:26:35;28.73;;;4.47;;
27706;SDS011;36332;51.384;0.040;2023-11-19T10:29:04;33.63;;;4.95;;
27706;SDS011;36332;51.384;0.040;2023-11-19T10:31:31;34.83;;;5.10;;
27706;SDS011;36332;51.384;0.040;2023-11-19T10:33:59;25.90;;;4.18;;
27706;SDS011;36332;51.384;0.040;2023-11-19T10:36:38;26.35;;;4.78;;
27706;SDS011;36332;51.384;0.040;2023-11-19T10:39:09;37.20;;;5.45;;
27706;SDS011;36332;51.384;0.040;2023-11-19T10:41:37;30.80;;;5.15;;
27706;SDS011;36332;51.384;0.040;2023-11-19T10:44:04;31.90;;;5.22;;
27706;SDS011;36332;51.384;0.040;2023-11-19T10:46:41;24.40;;;5.22;;
27706;SDS011;36332;51.384;0.040;2023-11-19T10:49:10;29.05;;;4.90;;
27706;SDS011;36332;51.384;0.040;2023-11-19T10:51:41;29.60;;;5.68;;
27706;SDS011;36332;51.384;0.040;2023-11-19T10:54:13;26.75;;;5.13;;
27706;SDS011;36332;51.384;0.040;2023-11-19T10:56:45;24.65;;;4.32;;
27706;SDS011;36332;51.384;0.040;2023-11-19T10:59:21;22.83;;;4.75;;
27706;SDS011;36332;51.384;0.040;2023-11-19T11:01:54;20.75;;;3.38;;
27706;SDS011;36332;51.384;0.040;2023-11-19T11:04:24;20.98;;;4.60;;
27706;SDS011;36332;51.384;0.040;2023-11-19T11:06:54;29.00;;;4.72;;
27706;SDS011;36332;51.384;0.040;2023-11-19T11:09:23;25.77;;;4.55;;
27706;SDS011;36332;51.384;0.040;2023-11-19T11:11:50;23.67;;;4.25;;
27706;SDS011;36332;51.384;0.040;2023-11-19T11:14:20;31.65;;;4.57;;
27706;SDS011;36332;51.384;0.040;2023-11-19T11:16:49;28.15;;;5.10;;
27706;SDS011;36332;51.384;0.040;2023-11-19T11:19:17;27.48;;;5.30;;
27706;SDS011;36332;51.384;0.040;2023-11-19T11:21:46;27.80;;;5.07;;
27706;SDS011;36332;51.384;0.040;2023-11-19T11:24:45;34.03;;;5.50;;
27706;SDS011;36332;51.384;0.040;2023-11-19T11:27:46;31.52;;;5.57;;
27706;SDS011;36332;51.384;0.040;2023-11-19T11:38:41;24.70;;;5.88;;
27706;SDS011;36332;51.384;0.040;2023-11-19T11:41:30;29.77;;;4.55;;
27706;SDS011;36332;51.384;0.040;2023-11-19T11:43:58;31.58;;;5.68;;
27706;SDS011;36332;51.384;0.040;2023-11-19T11:49:06;28.40;;;5.00;;
27706;SDS011;36332;51.384;0.040;2023-11-19T12:02:09;23.73;;;3.80;;
27706;SDS011;36332;51.384;0.040;2023-11-19T12:04:39;33.38;;;4.97;;
27706;SDS011;36332;51.384;0.040;2023-11-19T12:07:08;18.63;;;4.00;;
27706;SDS011;36332;51.384;0.040;2023-11-19T12:09:40;19.00;;;4.28;;
27706;SDS011;36332;51.384;0.040;2023-11-19T12:12:13;25.33;;;4.65;;
27706;SDS011;36332;51.384;0.040;2023-11-19T12:20:02;29.08;;;5.15;;
27706;SDS011;36332;51.384;0.040;2023-11-19T12:22:33;28.02;;;4.93;;
27706;SDS011;36332;51.384;0.040;2023-11-19T12:25:06;35.85;;;4.90;;
27706;SDS011;36332;51.384;0.040;2023-11-19T12:27:36;23.45;;;4.50;;
27706;SDS011;36332;51.384;0.040;2023-11-19T12:30:04;22.77;;;3.40;;
27706;SDS011;36332;51.384;0.040;2023-11-19T12:32:41;28.13;;;5.07;;
27706;SDS011;36332;51.384;0.040;2023-11-19T12:35:10;17.35;;;3.38;;
27706;SDS011;36332;51.384;0.040;2023-11-19T12:37:42;18.30;;;3.35;;
27706;SDS011;36332;51.384;0.040;2023-11-19T12:40:11;27.10;;;4.13;;
27706;SDS011;36332;51.384;0.040;2023-11-19T12:42:50;24.73;;;4.70;;
27706;SDS011;36332;51.384;0.040;2023-11-19T12:45:20;35.85;;;6.40;;
27706;SDS011;36332;51.384;0.040;2023-11-19T12:47:50;33.08;;;5.63;;
27706;SDS011;36332;51.384;0.040;2023-11-19T12:53:29;23.15;;;4.10;;
27706;SDS011;36332;51.384;0.040;2023-11-19T12:56:19;32.17;;;5.90;;
27706;SDS011;36332;51.384;0.040;2023-11-19T12:58:48;28.73;;;5.72;;
27706;SDS011;36332;51.384;0.040;2023-11-19T13:01:17;25.83;;;4.82;;
27706;SDS011;36332;51.384;0.040;2023-11-19T13:03:46;27.08;;;4.90;;
27706;SDS011;36332;51.384;0.040;2023-11-19T13:06:15;17.30;;;3.97;;
27706;SDS011;36332;51.384;0.040;2023-11-19T13:08:44;21.98;;;4.10;;
27706;SDS011;36332;51.384;0.040;2023-11-19T13:11:30;22.80;;;4.20;;
27706;SDS011;36332;51.384;0.040;2023-11-19T13:14:04;17.15;;;3.08;;
27706;SDS011;36332;51.384;0.040;2023-11-19T13:16:36;19.20;;;3.45;;
27706;SDS011;36332;51.384;0.040;2023-11-19T13:19:04;15.55;;;4.07;;
27706;SDS011;36332;51.384;0.040;2023-11-19T13:21:32;21.95;;;3.72;;
27706;SDS011;36332;51.384;0.040;2023-11-19T13:24:00;15.07;;;3.50;;
27706;SDS011;36332;51.384;0.040;2023-11-19T13:26:28;22.23;;;4.15;;
27706;SDS011;36332;51.384;0.040;2023-11-19T13:28:55;13.55;;;2.72;;
27706;SDS011;36332;51.384;0.040;2023-11-19T13:31:23;19.92;;;3.35;;
27706;SDS011;36332;51.384;0.040;2023-11-19T13:33:51;14.88;;;3.08;;
27706;SDS011;36332;51.384;0.040;2023-11-19T13:36:19;12.88;;;2.47;;
27706;SDS011;36332;51.384;0.040;2023-11-19T13:38:46;21.63;;;3.92;;
27706;SDS011;36332;51.384;0.040;2023-11-19T13:41:14;14.45;;;2.92;;
27706;SDS011;36332;51.384;0.040;2023-11-19T13:43:42;15.07;;;3.60;;
27706;SDS011;36332;51.384;0.040;2023-11-19T13:46:10;19.65;;;4.85;;
27706;SDS011;36332;51.384;0.040;2023-11-19T13:48:38;24.50;;;4.30;;
27706;SDS011;36332;51.384;0.040;2023-11-19T13:51:05;15.27;;;3.38;;
27706;SDS011;36332;51.384;0.040;2023-11-19T13:53:33;17.52;;;3.65;;
27706;SDS011;36332;51.384;0.040;2023-11-19T13:56:04;18.73;;;3.85;;
27706;SDS011;36332;51.384;0.040;2023-11-19T13:58:34;20.98;;;3.17;;
27706;SDS011;36332;51.384;0.040;2023-11-19T14:01:02;11.45;;;2.25;;
27706;SDS011;36332;51.384;0.040;2023-11-19T14:03:30;18.08;;;3.80;;
27706;SDS011;36332;51.384;0.040;2023-11-19T14:06:00;12.13;;;2.60;;
27706;SDS011;36332;51.384;0.040;2023-11-19T14:08:28;15.10;;;3.38;;
27706;SDS011;36332;51.384;0.040;2023-11-19T14:10:56;18.50;;;3.10;;
27706;SDS011;36332;51.384;0.040;2023-11-19T14:13:24;22.83;;;4.63;;
27706;SDS011;36332;51.384;0.040;2023-11-19T14:15:52;20.20;;;3.85;;
27706;SDS011;36332;51.384;0.040;2023-11-19T14:18:19;19.83;;;4.13;;
27706;SDS011;36332;51.384;0.040;2023-11-19T14:20:47;18.23;;;3.72;;
27706;SDS011;36332;51.384;0.040;2023-11-19T14:23:14;23.30;;;3.20;;
27706;SDS011;36332;51.384;0.040;2023-11-19T14:25:43;21.38;;;3.92;;
27706;SDS011;36332;51.384;0.040;2023-11-19T14:28:10;16.65;;;3.08;;
27706;SDS011;36332;51.384;0.040;2023-11-19T14:30:38;11.90;;;2.10;;
27706;SDS011;36332;51.384;0.040;2023-11-19T14:33:05;15.82;;;3.20;;
27706;SDS011;36332;51.384;0.040;2023-11-19T14:35:34;18.98;;;3.42;;
27706;SDS011;36332;51.384;0.040;2023-11-19T14:38:01;20.90;;;2.97;;
27706;SDS011;36332;51.384;0.040;2023-11-19T14:40:32;16.90;;;3.97;;
27706;SDS011;36332;51.384;0.040;2023-11-19T14:43:03;14.18;;;3.35;;
27706;SDS011;36332;51.384;0.040;2023-11-19T14:45:31;16.00;;;3.08;;
27706;SDS011;36332;51.384;0.040;2023-11-19T14:48:10;11.60;;;3.47;;
27706;SDS011;36332;51.384;0.040;2023-11-19T14:50:38;20.92;;;4.03;;
27706;SDS011;36332;51.384;0.040;2023-11-19T14:53:05;16.33;;;3.50;;
27706;SDS011;36332;51.384;0.040;2023-11-19T14:55:33;12.23;;;3.53;;
27706;SDS011;36332;51.384;0.040;2023-11-19T14:58:00;15.27;;;3.00;;
27706;SDS011;36332;51.384;0.040;2023-11-19T15:00:36;14.77;;;3.05;;
27706;SDS011;36332;51.384;0.040;2023-11-19T15:03:03;15.23;;;2.92;;
27706;SDS011;36332;51.384;0.040;2023-11-19T15:05:31;11.20;;;2.88;;
27706;SDS011;36332;51.384;0.040;2023-11-19T15:07:59;9.50;;;2.60;;
27706;SDS011;36332;51.384;0.040;2023-11-19T15:10:27;13.88;;;3.88;;
27706;SDS011;36332;51.384;0.040;2023-11-19T15:12:54;12.15;;;2.35;;
27706;SDS011;36332;51.384;0.040;2023-11-19T15:15:22;11.23;;;2.75;;
27706;SDS011;36332;51.384;0.040;2023-11-19T15:17:52;14.48;;;2.85;;
27706;SDS011;36332;51.384;0.040;2023-11-19T15:20:20;12.55;;;2.58;;